Independence, Ca., Owens Valley School Weather observations

 Day   Time    Ave.   Ave.  Ave.  Vector  Max.   Total    Solar  
  of    of     Air    Rel.  Wind   Wind   Wind  Precip.   Rad.   
Year   Day     Temp.  Hum.  Speed  Dir.   Gust                   
2014   (PST)    F      %     mph   deg.    mph    in.     W/m2  
----------------------------------------------------------------
 272    5:40   48.5    70    0.0   294     0.5    0.00       8
 272    5:50   49.4    67    0.5   315     3.5    0.00      11
 272    6:00   49.9    66    0.0   281     0.8    0.00      61
 272    6:10   51.7    62    1.2   317     3.5    0.00     122
 272    6:20   51.7    62    2.4   336     6.8    0.00     151
 272    6:30   52.4    61    0.9     7     3.8    0.00     182
 272    6:40   53.0    60    3.0    14     8.5    0.00     214
 272    6:50   52.7    62    2.8     9     8.2    0.00     245
 272    7:00   53.2    61    3.5   357     6.4    0.00     277
 272    7:10   54.0    59    3.7   347     7.5    0.00     309
 272    7:20   54.9    57    4.1   338     6.7    0.00     340
 272    7:30   56.5    53    2.8   321     8.9    0.00     370
 272    7:40   57.9    50    2.1   310     5.8    0.00     400
 272    7:50   58.6    48    2.8   304     7.0    0.00     428
 272    8:00   59.3    49    3.4     6     6.8    0.00     457
 272    8:10   59.7    50    4.1    28    10.0    0.00     483
 272    8:20   60.6    48    2.4    37     5.2    0.00     509
 272    8:30   61.8    47    3.4    50     8.2    0.00     535
 272    8:40   62.4    46    2.4    51     6.2    0.00     559
 272    8:50   63.7    44    2.5    62     7.5    0.00     582
 272    9:00   63.6    43    3.9    63     7.8    0.00     603
 272    9:10   63.3    43    3.9    59     8.0    0.00     622
 272    9:20   64.8    40    1.8    12     7.5    0.00     642
 272    9:30   65.0    39    3.2    42     7.9    0.00     660
 272    9:40   65.3    39    3.8    18     8.3    0.00     676
 272    9:50   65.5    38    3.8    40     9.7    0.00     692
 272   10:00   66.7    35    4.3     1    11.4    0.00     705
 272   10:10   66.0    34    5.3   321    10.6    0.00     718
 272   10:20   68.2    30    2.3   332     9.8    0.00     729
 272   10:30   68.5    29    2.8   328     8.8    0.00     739
 272   10:40   68.6    29    2.3   314     7.6    0.00     747
 272   10:50   70.4    27    2.3   355     6.5    0.00     754
 272   11:00   69.4    27    2.2   352     7.8    0.00     760
 272   11:10   71.4    26    1.0   100     4.9    0.00     764
 272   11:20   71.9    26    1.5   156     5.6    0.00     765
 272   11:30   71.6    26    4.2    36     7.7    0.00     761
 272   11:40   71.4    26    1.8     2     6.8    0.00     757
 272   11:50   72.1    26    2.0    85     6.5    0.00     752
 272   12:00   72.3    25    2.4    92     7.5    0.00     747
 272   12:10   73.7    23    1.2    72     8.8    0.00     739
 272   12:20   72.6    24    2.9    41     9.0    0.00     728
 272   12:30   74.2    23    1.4    88     4.2    0.00     718
 272   12:40   73.6    22    3.2    99     6.7    0.00     706
 272   12:50   74.0    22    2.6    61     6.8    0.00     692
 272   13:00   74.2    22    2.5    45     6.8    0.00     675
 272   13:10   74.3    22    2.5   348     8.2    0.00     657
 272   13:20   75.5    21    1.8    44     6.7    0.00     639
 272   13:30   75.1    21    3.7    33     6.4    0.00     619
 272   13:40   74.8    20    2.3   114     6.0    0.00     599
 272   13:50   76.7    20    1.9    71     7.2    0.00     577
 272   14:00   76.9    19    1.3    42     5.0    0.00     552
 272   14:10   77.1    20    3.2    37     8.6    0.00     528
 272   14:20   76.4    20    3.4    93     7.4    0.00     502
 272   14:30   77.2    18    2.1    70     4.3    0.00     474
 272   14:40   77.5    18    2.9    76     6.5    0.00     446
 272   14:50   76.2    18    3.2    83     7.6    0.00     416
 272   15:00   77.1    17    2.5   138     5.7    0.00     386
 272   15:10   77.0    17    3.7   121    10.5    0.00     355
 272   15:20   76.4    18    3.9    84     8.9    0.00     324
 272   15:30   76.2    18    3.1   117     7.1    0.00     293
 272   15:40   76.8    18    2.3   113     6.2    0.00     262
 272   15:50   75.8    18    3.8   108     8.4    0.00     231
 272   16:00   75.2    19    3.3    88     6.9    0.00     200
 272   16:10   75.2    19    3.1   105     5.6    0.00     170
 272   16:20   75.3    18    1.9   117     4.3    0.00     140
 272   16:30   74.2    19    1.3   112     5.8    0.00      52
 272   16:40   71.9    22    1.0   101     3.0    0.00      14
 272   16:50   71.0    21    2.2   146     5.4    0.00      11
 272   17:00   70.2    23    0.4   152     2.7    0.00       9
 272   17:10   69.4    23    0.2   183     1.4    0.00       6
 272   17:20   68.6    23    0.6   200     3.1    0.00       3
 272   17:30   67.9    23    0.7   187     3.8    0.00       1
 272   17:40   67.0    26    0.7   190     3.6    0.00       0
 272   17:50   66.3    27    1.3   195     3.8    0.00       0
 272   18:00   65.9    28    1.5   199     4.6    0.00       0
 272   18:10   65.2    28    0.6   211     4.6    0.00       0
 272   18:20   64.9    29    0.6   201     3.6    0.00       0
 272   18:30   65.0    30    1.0   216     5.4    0.00       0
 272   18:40   64.8    30    0.5   217     3.4    0.00       0
 272   18:50   64.6    31    0.3   216     3.6    0.00       0
 272   19:00   64.3    31    0.3   213     2.8    0.00       0
 272   19:10   63.5    34    0.1   242     2.4    0.00       0
 272   19:20   60.0    43    0.0     0     0.0    0.00       0
 272   19:30   59.8    40    0.0     0     0.0    0.00       0
 272   19:40   59.8    40    0.1   141     1.9    0.00       0
 272   19:50   61.1    38    0.1   123     1.9    0.00       0
 272   20:00   61.0    37    0.0   121     2.2    0.00       0
 272   20:10   60.4    38    0.0     0     0.0    0.00       0
 272   20:20   59.5    40    0.0     0     0.0    0.00       0
 272   20:30   58.7    39    0.0     0     0.0    0.00       0
 272   20:40   57.9    39    0.0     0     0.0    0.00       0
 272   20:50   57.8    40    0.0     0     0.0    0.00       0
 272   21:00   58.2    40    0.0     0     0.0    0.00       0
 272   21:10   58.0    40    0.0     0     0.0    0.00       0
 272   21:20   57.5    40    0.0     0     0.0    0.00       0
 272   21:30   57.5    39    0.0     0     0.0    0.00       0
 272   21:40   58.0    37    1.1   203     3.5    0.00       0
 272   21:50   59.2    35    2.3   202     3.6    0.00       0
 272   22:00   59.3    35    2.5   200     3.9    0.00       0
 272   22:10   59.3    35    2.7   206     4.7    0.00       0
 272   22:20   59.1    35    1.7   213     4.1    0.00       0
 272   22:30   58.9    36    0.3   203     2.8    0.00       0
 272   22:40   58.6    37    1.3   197     4.4    0.00       0
 272   22:50   58.2    37    2.6   206     4.3    0.00       0
 272   23:00   58.1    38    1.2   209     4.1    0.00       0
 272   23:10   57.9    38    0.1   208     2.5    0.00       0
 272   23:20   57.7    38    0.0   219     0.5    0.00       0
 272   23:30   56.8    41    0.1   228     2.4    0.00       0
 272   23:40   56.5    41    0.0     0     0.0    0.00       0
 272   23:50   55.6    43    0.0     0     0.0    0.00       0
 273    0:00   55.8    42    0.0     0     0.0    0.00       0
 273    0:10   55.1    43    0.0     0     0.0    0.00       0
 273    0:20   55.6    43    0.0     0     0.0    0.00       0
 273    0:30   55.0    44    0.0     0     0.0    0.00       0
 273    0:40   55.1    44    0.0     0     0.0    0.00       0
 273    0:50   54.3    47    0.0     0     0.0    0.00       0
 273    1:00   54.0    46    0.0     0     0.0    0.00       0
 273    1:10   54.0    46    0.0     0     0.0    0.00       0
 273    1:20   53.9    47    0.0     0     0.0    0.00       0
 273    1:30   53.4    48    0.0     0     0.0    0.00       0
 273    1:40   54.0    47    0.0     0     0.0    0.00       0
 273    1:50   53.1    50    0.0     0     0.0    0.00       0
 273    2:00   52.5    51    0.1   322     2.5    0.00       0
 273    2:10   52.5    52    0.1   319     1.1    0.00       0
 273    2:20   52.7    52    0.0   296     1.1    0.00       0
 273    2:30   52.4    52    0.0     0     0.0    0.00       0
 273    2:40   52.4    51    0.0     0     0.0    0.00       0
 273    2:50   52.8    50    0.0     0     0.0    0.00       0
 273    3:00   52.1    52    0.0     0     0.0    0.00       0
 273    3:10   52.2    51    0.0     0     0.0    0.00       0
 273    3:20   52.8    50    0.0     0     0.0    0.00       0
 273    3:30   53.4    48    0.0     0     0.0    0.00       0
 273    3:40   52.4    51    0.0   322     0.9    0.00       0
 273    3:50   51.9    52    0.0     0     0.0    0.00       0
 273    4:00   51.8    51    0.3   266     4.2    0.00       0
 273    4:10   52.0    51    0.0     0     0.0    0.00       0
 273    4:20   51.4    52    0.0     0     0.0    0.00       0
 273    4:30   50.8    53    0.0     0     0.0    0.00       0
 273    4:40   51.1    53    0.0     0     0.0    0.00       0
 273    4:50   51.8    52    1.1   325     5.5    0.00       0
 273    5:00   51.8    52    1.4   308     6.7    0.00       0
 273    5:10   51.2    52    1.2   307     5.6    0.00       1
 273    5:20   51.1    52    0.4   302     4.3    0.00       3
 273    5:30   51.5    51    0.3   307     2.4    0.00       6

Return to Independence, Ca. graphs page.


Western Regional Climate Center,wrcc@dri.edu